sensor_id;sensor_type;location;lat;lon;timestamp;P1;durP1;ratioP1;P2;durP2;ratioP2
19032;SDS011;9649;51.042;13.804;2022-07-19T00:01:16;3.35;;;1.95;;
19032;SDS011;9649;51.042;13.804;2022-07-19T00:06:21;7.28;;;1.77;;
19032;SDS011;9649;51.042;13.804;2022-07-19T00:11:23;2.85;;;1.63;;
19032;SDS011;9649;51.042;13.804;2022-07-19T00:16:26;2.78;;;1.80;;
19032;SDS011;9649;51.042;13.804;2022-07-19T00:21:30;4.63;;;1.88;;
19032;SDS011;9649;51.042;13.804;2022-07-19T00:26:33;2.83;;;1.80;;
19032;SDS011;9649;51.042;13.804;2022-07-19T00:31:36;3.90;;;2.05;;
19032;SDS011;9649;51.042;13.804;2022-07-19T00:36:40;3.63;;;1.80;;
19032;SDS011;9649;51.042;13.804;2022-07-19T00:41:43;5.30;;;1.95;;
19032;SDS011;9649;51.042;13.804;2022-07-19T00:46:46;5.40;;;1.80;;
19032;SDS011;9649;51.042;13.804;2022-07-19T00:51:51;3.72;;;1.92;;
19032;SDS011;9649;51.042;13.804;2022-07-19T00:56:54;3.05;;;1.70;;
19032;SDS011;9649;51.042;13.804;2022-07-19T01:02:00;4.97;;;1.92;;
19032;SDS011;9649;51.042;13.804;2022-07-19T01:07:05;4.20;;;1.90;;
19032;SDS011;9649;51.042;13.804;2022-07-19T01:12:09;6.07;;;1.92;;
19032;SDS011;9649;51.042;13.804;2022-07-19T01:17:12;7.13;;;2.20;;
19032;SDS011;9649;51.042;13.804;2022-07-19T01:22:16;3.95;;;1.80;;
19032;SDS011;9649;51.042;13.804;2022-07-19T01:27:19;3.72;;;1.85;;
19032;SDS011;9649;51.042;13.804;2022-07-19T01:32:22;4.72;;;1.83;;
19032;SDS011;9649;51.042;13.804;2022-07-19T01:37:26;4.88;;;1.98;;
19032;SDS011;9649;51.042;13.804;2022-07-19T01:42:29;3.58;;;2.08;;
19032;SDS011;9649;51.042;13.804;2022-07-19T01:47:32;7.78;;;2.00;;
19032;SDS011;9649;51.042;13.804;2022-07-19T01:52:36;8.05;;;2.20;;
19032;SDS011;9649;51.042;13.804;2022-07-19T01:57:44;5.45;;;2.08;;
19032;SDS011;9649;51.042;13.804;2022-07-19T02:02:47;3.65;;;2.03;;
19032;SDS011;9649;51.042;13.804;2022-07-19T02:07:51;5.00;;;2.38;;
19032;SDS011;9649;51.042;13.804;2022-07-19T02:12:54;6.43;;;1.90;;
19032;SDS011;9649;51.042;13.804;2022-07-19T02:17:57;5.32;;;1.88;;
19032;SDS011;9649;51.042;13.804;2022-07-19T02:23:01;3.50;;;1.98;;
19032;SDS011;9649;51.042;13.804;2022-07-19T02:28:03;4.45;;;1.73;;
19032;SDS011;9649;51.042;13.804;2022-07-19T02:33:06;7.00;;;2.17;;
19032;SDS011;9649;51.042;13.804;2022-07-19T02:38:10;2.67;;;1.67;;
19032;SDS011;9649;51.042;13.804;2022-07-19T02:43:13;3.63;;;2.13;;
19032;SDS011;9649;51.042;13.804;2022-07-19T02:48:16;4.13;;;2.13;;
19032;SDS011;9649;51.042;13.804;2022-07-19T02:53:20;4.55;;;2.22;;
19032;SDS011;9649;51.042;13.804;2022-07-19T02:58:23;4.88;;;2.10;;
19032;SDS011;9649;51.042;13.804;2022-07-19T03:03:25;2.67;;;1.77;;
19032;SDS011;9649;51.042;13.804;2022-07-19T03:08:49;4.63;;;2.00;;
19032;SDS011;9649;51.042;13.804;2022-07-19T03:13:52;5.63;;;2.55;;
19032;SDS011;9649;51.042;13.804;2022-07-19T03:18:55;5.28;;;2.38;;
19032;SDS011;9649;51.042;13.804;2022-07-19T03:23:59;4.55;;;2.40;;
19032;SDS011;9649;51.042;13.804;2022-07-19T03:29:02;6.60;;;2.60;;
19032;SDS011;9649;51.042;13.804;2022-07-19T03:34:05;13.57;;;2.45;;
19032;SDS011;9649;51.042;13.804;2022-07-19T03:39:09;9.60;;;2.50;;
19032;SDS011;9649;51.042;13.804;2022-07-19T03:44:11;2.63;;;2.00;;
19032;SDS011;9649;51.042;13.804;2022-07-19T03:49:14;4.75;;;2.33;;
19032;SDS011;9649;51.042;13.804;2022-07-19T03:54:18;4.78;;;2.33;;
19032;SDS011;9649;51.042;13.804;2022-07-19T03:59:21;7.32;;;3.58;;
19032;SDS011;9649;51.042;13.804;2022-07-19T04:04:24;5.15;;;2.47;;
19032;SDS011;9649;51.042;13.804;2022-07-19T04:09:28;5.45;;;2.72;;
19032;SDS011;9649;51.042;13.804;2022-07-19T04:14:31;5.30;;;2.05;;
19032;SDS011;9649;51.042;13.804;2022-07-19T04:19:34;6.00;;;2.38;;
19032;SDS011;9649;51.042;13.804;2022-07-19T04:24:38;6.15;;;2.60;;
19032;SDS011;9649;51.042;13.804;2022-07-19T04:29:41;6.88;;;2.20;;
19032;SDS011;9649;51.042;13.804;2022-07-19T04:34:44;4.18;;;2.13;;
19032;SDS011;9649;51.042;13.804;2022-07-19T04:39:48;3.58;;;2.38;;
19032;SDS011;9649;51.042;13.804;2022-07-19T04:44:50;6.70;;;2.35;;
19032;SDS011;9649;51.042;13.804;2022-07-19T04:49:53;5.57;;;2.50;;
19032;SDS011;9649;51.042;13.804;2022-07-19T04:54:57;4.65;;;2.45;;
19032;SDS011;9649;51.042;13.804;2022-07-19T05:00:00;4.50;;;2.00;;
19032;SDS011;9649;51.042;13.804;2022-07-19T05:05:04;3.58;;;2.25;;
19032;SDS011;9649;51.042;13.804;2022-07-19T05:10:09;6.80;;;2.22;;
19032;SDS011;9649;51.042;13.804;2022-07-19T05:15:12;7.55;;;2.13;;
19032;SDS011;9649;51.042;13.804;2022-07-19T05:20:16;2.58;;;1.75;;
19032;SDS011;9649;51.042;13.804;2022-07-19T05:25:20;6.93;;;2.08;;
19032;SDS011;9649;51.042;13.804;2022-07-19T05:30:24;4.22;;;2.00;;
19032;SDS011;9649;51.042;13.804;2022-07-19T05:35:27;5.57;;;1.90;;
19032;SDS011;9649;51.042;13.804;2022-07-19T05:40:33;6.15;;;1.80;;
19032;SDS011;9649;51.042;13.804;2022-07-19T05:45:36;3.78;;;1.85;;
19032;SDS011;9649;51.042;13.804;2022-07-19T05:50:38;6.60;;;1.90;;
19032;SDS011;9649;51.042;13.804;2022-07-19T05:55:42;6.53;;;2.08;;
19032;SDS011;9649;51.042;13.804;2022-07-19T06:00:46;5.35;;;2.28;;
19032;SDS011;9649;51.042;13.804;2022-07-19T06:06:03;6.30;;;2.58;;
19032;SDS011;9649;51.042;13.804;2022-07-19T06:11:07;6.55;;;2.42;;
19032;SDS011;9649;51.042;13.804;2022-07-19T06:16:10;9.77;;;1.75;;
19032;SDS011;9649;51.042;13.804;2022-07-19T06:21:14;7.80;;;1.98;;
19032;SDS011;9649;51.042;13.804;2022-07-19T06:26:21;5.40;;;2.08;;
19032;SDS011;9649;51.042;13.804;2022-07-19T06:31:24;4.47;;;1.63;;
19032;SDS011;9649;51.042;13.804;2022-07-19T06:36:27;4.88;;;1.75;;
19032;SDS011;9649;51.042;13.804;2022-07-19T06:41:31;4.20;;;1.85;;
19032;SDS011;9649;51.042;13.804;2022-07-19T06:46:34;7.95;;;1.63;;
19032;SDS011;9649;51.042;13.804;2022-07-19T06:51:37;5.20;;;1.88;;
19032;SDS011;9649;51.042;13.804;2022-07-19T06:56:41;7.80;;;1.75;;
19032;SDS011;9649;51.042;13.804;2022-07-19T07:01:44;10.80;;;1.80;;
19032;SDS011;9649;51.042;13.804;2022-07-19T07:06:47;2.92;;;1.50;;
19032;SDS011;9649;51.042;13.804;2022-07-19T07:11:51;2.33;;;1.58;;
19032;SDS011;9649;51.042;13.804;2022-07-19T07:16:54;5.57;;;2.00;;
19032;SDS011;9649;51.042;13.804;2022-07-19T07:21:57;5.20;;;1.75;;
19032;SDS011;9649;51.042;13.804;2022-07-19T07:27:03;3.95;;;1.23;;
19032;SDS011;9649;51.042;13.804;2022-07-19T07:32:06;4.35;;;1.60;;
19032;SDS011;9649;51.042;13.804;2022-07-19T07:37:09;3.55;;;1.65;;
19032;SDS011;9649;51.042;13.804;2022-07-19T07:42:14;8.23;;;1.50;;
19032;SDS011;9649;51.042;13.804;2022-07-19T07:47:17;6.20;;;1.80;;
19032;SDS011;9649;51.042;13.804;2022-07-19T07:52:20;5.15;;;1.45;;
19032;SDS011;9649;51.042;13.804;2022-07-19T07:57:24;6.05;;;1.70;;
19032;SDS011;9649;51.042;13.804;2022-07-19T08:02:26;3.45;;;1.50;;
19032;SDS011;9649;51.042;13.804;2022-07-19T08:07:29;2.88;;;1.30;;
19032;SDS011;9649;51.042;13.804;2022-07-19T08:12:34;4.57;;;1.60;;
19032;SDS011;9649;51.042;13.804;2022-07-19T08:17:36;6.40;;;1.70;;
19032;SDS011;9649;51.042;13.804;2022-07-19T08:22:39;3.10;;;1.38;;
19032;SDS011;9649;51.042;13.804;2022-07-19T08:27:44;6.15;;;1.70;;
19032;SDS011;9649;51.042;13.804;2022-07-19T08:32:47;4.28;;;1.75;;
19032;SDS011;9649;51.042;13.804;2022-07-19T08:37:54;4.65;;;1.60;;
19032;SDS011;9649;51.042;13.804;2022-07-19T08:43:02;3.65;;;1.45;;
19032;SDS011;9649;51.042;13.804;2022-07-19T08:48:06;2.72;;;1.50;;
19032;SDS011;9649;51.042;13.804;2022-07-19T08:53:12;2.22;;;1.40;;
19032;SDS011;9649;51.042;13.804;2022-07-19T08:58:18;1.95;;;1.50;;
19032;SDS011;9649;51.042;13.804;2022-07-19T09:03:21;5.00;;;1.67;;
19032;SDS011;9649;51.042;13.804;2022-07-19T09:08:24;5.20;;;1.50;;
19032;SDS011;9649;51.042;13.804;2022-07-19T09:13:28;3.42;;;1.40;;
19032;SDS011;9649;51.042;13.804;2022-07-19T09:18:33;4.25;;;1.40;;
19032;SDS011;9649;51.042;13.804;2022-07-19T09:23:37;5.70;;;1.60;;
19032;SDS011;9649;51.042;13.804;2022-07-19T09:28:45;5.78;;;1.50;;
19032;SDS011;9649;51.042;13.804;2022-07-19T09:33:50;5.72;;;1.40;;
19032;SDS011;9649;51.042;13.804;2022-07-19T09:39:06;2.05;;;1.60;;
19032;SDS011;9649;51.042;13.804;2022-07-19T09:58:03;3.85;;;1.35;;
19032;SDS011;9649;51.042;13.804;2022-07-19T10:03:08;1.52;;;1.40;;
19032;SDS011;9649;51.042;13.804;2022-07-19T10:08:12;4.50;;;1.85;;
19032;SDS011;9649;51.042;13.804;2022-07-19T10:13:16;3.75;;;1.80;;
19032;SDS011;9649;51.042;13.804;2022-07-19T10:18:20;2.15;;;1.33;;
19032;SDS011;9649;51.042;13.804;2022-07-19T10:23:30;2.42;;;1.52;;
19032;SDS011;9649;51.042;13.804;2022-07-19T10:28:35;7.22;;;1.50;;
19032;SDS011;9649;51.042;13.804;2022-07-19T10:34:00;2.10;;;1.40;;
19032;SDS011;9649;51.042;13.804;2022-07-19T10:39:18;4.13;;;1.38;;
19032;SDS011;9649;51.042;13.804;2022-07-19T10:44:32;2.97;;;1.55;;
19032;SDS011;9649;51.042;13.804;2022-07-19T10:49:41;3.17;;;1.50;;
19032;SDS011;9649;51.042;13.804;2022-07-19T10:54:45;7.85;;;1.60;;
19032;SDS011;9649;51.042;13.804;2022-07-19T10:59:49;3.00;;;1.70;;
19032;SDS011;9649;51.042;13.804;2022-07-19T11:04:52;1.63;;;1.52;;
19032;SDS011;9649;51.042;13.804;2022-07-19T11:09:55;2.38;;;1.58;;
19032;SDS011;9649;51.042;13.804;2022-07-19T11:15:02;3.25;;;1.30;;
19032;SDS011;9649;51.042;13.804;2022-07-19T11:20:17;3.85;;;1.45;;
19032;SDS011;9649;51.042;13.804;2022-07-19T11:25:23;5.55;;;1.45;;
19032;SDS011;9649;51.042;13.804;2022-07-19T11:30:29;6.45;;;1.77;;
19032;SDS011;9649;51.042;13.804;2022-07-19T11:35:33;6.72;;;2.00;;
19032;SDS011;9649;51.042;13.804;2022-07-19T11:40:37;5.47;;;1.80;;
19032;SDS011;9649;51.042;13.804;2022-07-19T11:45:42;12.82;;;2.00;;
19032;SDS011;9649;51.042;13.804;2022-07-19T11:50:47;8.77;;;1.77;;
19032;SDS011;9649;51.042;13.804;2022-07-19T11:56:00;3.08;;;1.70;;
19032;SDS011;9649;51.042;13.804;2022-07-19T12:01:05;2.25;;;1.70;;
19032;SDS011;9649;51.042;13.804;2022-07-19T12:06:08;2.63;;;1.70;;
19032;SDS011;9649;51.042;13.804;2022-07-19T12:11:18;4.93;;;1.58;;
19032;SDS011;9649;51.042;13.804;2022-07-19T12:16:23;6.43;;;1.85;;
19032;SDS011;9649;51.042;13.804;2022-07-19T12:21:26;6.50;;;1.98;;
19032;SDS011;9649;51.042;13.804;2022-07-19T12:26:43;4.78;;;1.98;;
19032;SDS011;9649;51.042;13.804;2022-07-19T12:31:58;3.42;;;1.88;;
19032;SDS011;9649;51.042;13.804;2022-07-19T12:37:16;3.55;;;1.80;;
19032;SDS011;9649;51.042;13.804;2022-07-19T12:42:20;4.38;;;1.90;;
19032;SDS011;9649;51.042;13.804;2022-07-19T12:47:24;4.88;;;2.20;;
19032;SDS011;9649;51.042;13.804;2022-07-19T12:52:42;4.93;;;2.10;;
19032;SDS011;9649;51.042;13.804;2022-07-19T12:57:45;4.40;;;2.58;;
19032;SDS011;9649;51.042;13.804;2022-07-19T13:02:50;6.78;;;2.67;;
19032;SDS011;9649;51.042;13.804;2022-07-19T13:07:54;9.60;;;2.70;;
19032;SDS011;9649;51.042;13.804;2022-07-19T13:12:57;4.07;;;2.25;;
19032;SDS011;9649;51.042;13.804;2022-07-19T13:18:01;3.97;;;1.92;;
19032;SDS011;9649;51.042;13.804;2022-07-19T13:23:04;4.70;;;2.00;;
19032;SDS011;9649;51.042;13.804;2022-07-19T13:28:07;7.10;;;2.20;;
19032;SDS011;9649;51.042;13.804;2022-07-19T13:33:11;5.85;;;2.63;;
19032;SDS011;9649;51.042;13.804;2022-07-19T13:38:13;6.50;;;2.70;;
19032;SDS011;9649;51.042;13.804;2022-07-19T13:43:16;10.05;;;2.70;;
19032;SDS011;9649;51.042;13.804;2022-07-19T13:48:20;4.28;;;2.55;;
19032;SDS011;9649;51.042;13.804;2022-07-19T13:53:23;6.22;;;2.42;;
19032;SDS011;9649;51.042;13.804;2022-07-19T13:58:26;3.38;;;2.47;;
19032;SDS011;9649;51.042;13.804;2022-07-19T14:03:30;5.82;;;2.28;;
19032;SDS011;9649;51.042;13.804;2022-07-19T14:08:32;4.38;;;2.78;;
19032;SDS011;9649;51.042;13.804;2022-07-19T14:13:35;6.20;;;2.70;;
19032;SDS011;9649;51.042;13.804;2022-07-19T14:18:40;5.35;;;2.60;;
19032;SDS011;9649;51.042;13.804;2022-07-19T14:23:43;3.30;;;2.60;;
19032;SDS011;9649;51.042;13.804;2022-07-19T14:28:45;7.18;;;2.55;;
19032;SDS011;9649;51.042;13.804;2022-07-19T14:33:50;4.25;;;2.22;;
19032;SDS011;9649;51.042;13.804;2022-07-19T14:39:13;3.95;;;2.40;;
19032;SDS011;9649;51.042;13.804;2022-07-19T14:44:16;6.40;;;2.42;;
19032;SDS011;9649;51.042;13.804;2022-07-19T14:49:20;7.70;;;2.47;;
19032;SDS011;9649;51.042;13.804;2022-07-19T14:54:23;4.22;;;2.08;;
19032;SDS011;9649;51.042;13.804;2022-07-19T14:59:25;5.97;;;2.40;;
19032;SDS011;9649;51.042;13.804;2022-07-19T15:04:29;4.72;;;2.53;;
19032;SDS011;9649;51.042;13.804;2022-07-19T15:09:32;5.10;;;2.15;;
19032;SDS011;9649;51.042;13.804;2022-07-19T15:14:36;6.85;;;2.40;;
19032;SDS011;9649;51.042;13.804;2022-07-19T15:19:40;3.50;;;2.22;;
19032;SDS011;9649;51.042;13.804;2022-07-19T15:24:43;4.80;;;2.58;;
19032;SDS011;9649;51.042;13.804;2022-07-19T15:29:46;4.80;;;2.40;;
19032;SDS011;9649;51.042;13.804;2022-07-19T15:34:50;7.65;;;2.38;;
19032;SDS011;9649;51.042;13.804;2022-07-19T15:39:52;6.68;;;2.20;;
19032;SDS011;9649;51.042;13.804;2022-07-19T15:44:55;5.25;;;2.00;;
19032;SDS011;9649;51.042;13.804;2022-07-19T15:49:59;6.20;;;2.20;;
19032;SDS011;9649;51.042;13.804;2022-07-19T15:55:02;2.67;;;1.95;;
19032;SDS011;9649;51.042;13.804;2022-07-19T16:00:07;7.45;;;2.10;;
19032;SDS011;9649;51.042;13.804;2022-07-19T16:05:12;7.95;;;2.25;;
19032;SDS011;9649;51.042;13.804;2022-07-19T16:10:15;5.07;;;2.40;;
19032;SDS011;9649;51.042;13.804;2022-07-19T16:15:26;3.00;;;2.30;;
19032;SDS011;9649;51.042;13.804;2022-07-19T16:20:30;2.67;;;1.98;;
19032;SDS011;9649;51.042;13.804;2022-07-19T16:25:33;6.95;;;2.55;;
19032;SDS011;9649;51.042;13.804;2022-07-19T16:30:36;4.15;;;2.30;;
19032;SDS011;9649;51.042;13.804;2022-07-19T16:35:40;8.20;;;2.42;;
19032;SDS011;9649;51.042;13.804;2022-07-19T16:40:43;9.00;;;2.20;;
19032;SDS011;9649;51.042;13.804;2022-07-19T16:45:46;3.38;;;2.03;;
19032;SDS011;9649;51.042;13.804;2022-07-19T16:50:50;5.63;;;2.10;;
19032;SDS011;9649;51.042;13.804;2022-07-19T16:55:53;7.32;;;2.20;;
19032;SDS011;9649;51.042;13.804;2022-07-19T17:00:55;4.60;;;2.38;;
19032;SDS011;9649;51.042;13.804;2022-07-19T17:06:00;4.28;;;2.35;;
19032;SDS011;9649;51.042;13.804;2022-07-19T17:11:03;6.55;;;2.58;;
19032;SDS011;9649;51.042;13.804;2022-07-19T17:16:06;4.15;;;2.17;;
19032;SDS011;9649;51.042;13.804;2022-07-19T17:21:10;5.38;;;2.38;;
19032;SDS011;9649;51.042;13.804;2022-07-19T17:26:13;4.85;;;2.42;;
19032;SDS011;9649;51.042;13.804;2022-07-19T17:31:16;8.30;;;2.45;;
19032;SDS011;9649;51.042;13.804;2022-07-19T17:36:20;5.65;;;2.40;;
19032;SDS011;9649;51.042;13.804;2022-07-19T17:41:24;5.68;;;2.75;;
19032;SDS011;9649;51.042;13.804;2022-07-19T17:46:27;7.15;;;2.90;;
19032;SDS011;9649;51.042;13.804;2022-07-19T17:51:32;4.50;;;2.72;;
19032;SDS011;9649;51.042;13.804;2022-07-19T17:56:35;7.47;;;3.40;;
19032;SDS011;9649;51.042;13.804;2022-07-19T18:01:40;7.25;;;2.63;;
19032;SDS011;9649;51.042;13.804;2022-07-19T18:06:47;6.95;;;2.58;;
19032;SDS011;9649;51.042;13.804;2022-07-19T18:11:57;4.43;;;2.35;;
19032;SDS011;9649;51.042;13.804;2022-07-19T18:17:16;8.10;;;3.13;;
19032;SDS011;9649;51.042;13.804;2022-07-19T18:22:30;4.88;;;2.53;;
19032;SDS011;9649;51.042;13.804;2022-07-19T18:27:33;7.03;;;2.88;;
19032;SDS011;9649;51.042;13.804;2022-07-19T18:32:44;4.32;;;2.20;;
19032;SDS011;9649;51.042;13.804;2022-07-19T18:37:51;5.13;;;2.25;;
19032;SDS011;9649;51.042;13.804;2022-07-19T18:43:01;4.97;;;2.72;;
19032;SDS011;9649;51.042;13.804;2022-07-19T18:48:13;5.22;;;2.42;;
19032;SDS011;9649;51.042;13.804;2022-07-19T18:53:35;4.22;;;2.33;;
19032;SDS011;9649;51.042;13.804;2022-07-19T18:58:39;6.22;;;2.50;;
19032;SDS011;9649;51.042;13.804;2022-07-19T19:03:44;6.20;;;2.78;;
19032;SDS011;9649;51.042;13.804;2022-07-19T19:08:50;5.47;;;2.35;;
19032;SDS011;9649;51.042;13.804;2022-07-19T19:13:56;3.80;;;2.10;;
19032;SDS011;9649;51.042;13.804;2022-07-19T19:18:59;3.42;;;2.10;;
19032;SDS011;9649;51.042;13.804;2022-07-19T19:24:05;4.75;;;2.28;;
19032;SDS011;9649;51.042;13.804;2022-07-19T19:29:09;9.63;;;2.70;;
19032;SDS011;9649;51.042;13.804;2022-07-19T19:34:12;8.63;;;2.33;;
19032;SDS011;9649;51.042;13.804;2022-07-19T19:39:16;5.30;;;2.78;;
19032;SDS011;9649;51.042;13.804;2022-07-19T19:44:19;10.00;;;2.60;;
19032;SDS011;9649;51.042;13.804;2022-07-19T19:49:22;7.78;;;2.22;;
19032;SDS011;9649;51.042;13.804;2022-07-19T19:54:26;7.38;;;2.70;;
19032;SDS011;9649;51.042;13.804;2022-07-19T19:59:29;7.65;;;2.60;;
19032;SDS011;9649;51.042;13.804;2022-07-19T20:04:32;5.03;;;2.47;;
19032;SDS011;9649;51.042;13.804;2022-07-19T20:09:37;6.20;;;2.65;;
19032;SDS011;9649;51.042;13.804;2022-07-19T20:14:39;9.45;;;2.83;;
19032;SDS011;9649;51.042;13.804;2022-07-19T20:19:42;5.25;;;2.35;;
19032;SDS011;9649;51.042;13.804;2022-07-19T20:24:47;6.80;;;2.15;;
19032;SDS011;9649;51.042;13.804;2022-07-19T20:29:50;6.45;;;3.15;;
19032;SDS011;9649;51.042;13.804;2022-07-19T20:34:53;8.02;;;2.65;;
19032;SDS011;9649;51.042;13.804;2022-07-19T20:40:00;6.07;;;2.80;;
19032;SDS011;9649;51.042;13.804;2022-07-19T20:45:04;7.25;;;2.40;;
19032;SDS011;9649;51.042;13.804;2022-07-19T20:50:07;4.60;;;2.47;;
19032;SDS011;9649;51.042;13.804;2022-07-19T20:55:12;4.57;;;2.40;;
19032;SDS011;9649;51.042;13.804;2022-07-19T21:00:15;6.25;;;2.35;;
19032;SDS011;9649;51.042;13.804;2022-07-19T21:05:18;5.63;;;2.75;;
19032;SDS011;9649;51.042;13.804;2022-07-19T21:10:22;3.78;;;2.55;;
19032;SDS011;9649;51.042;13.804;2022-07-19T21:15:26;4.70;;;2.60;;
19032;SDS011;9649;51.042;13.804;2022-07-19T21:20:29;5.60;;;2.65;;
19032;SDS011;9649;51.042;13.804;2022-07-19T21:25:33;7.15;;;2.80;;
19032;SDS011;9649;51.042;13.804;2022-07-19T21:30:36;4.60;;;2.30;;
19032;SDS011;9649;51.042;13.804;2022-07-19T21:35:39;3.63;;;2.50;;
19032;SDS011;9649;51.042;13.804;2022-07-19T21:40:43;6.10;;;2.92;;
19032;SDS011;9649;51.042;13.804;2022-07-19T21:45:46;8.35;;;2.60;;
19032;SDS011;9649;51.042;13.804;2022-07-19T21:50:49;6.75;;;3.03;;
19032;SDS011;9649;51.042;13.804;2022-07-19T21:55:53;6.78;;;2.72;;
19032;SDS011;9649;51.042;13.804;2022-07-19T22:00:55;5.82;;;2.42;;
19032;SDS011;9649;51.042;13.804;2022-07-19T22:05:58;8.23;;;2.40;;
19032;SDS011;9649;51.042;13.804;2022-07-19T22:11:03;5.95;;;3.00;;
19032;SDS011;9649;51.042;13.804;2022-07-19T22:16:06;5.68;;;2.80;;
19032;SDS011;9649;51.042;13.804;2022-07-19T22:21:09;8.05;;;2.75;;
19032;SDS011;9649;51.042;13.804;2022-07-19T22:26:13;5.95;;;2.78;;
19032;SDS011;9649;51.042;13.804;2022-07-19T22:31:16;5.88;;;2.88;;
19032;SDS011;9649;51.042;13.804;2022-07-19T22:36:19;4.88;;;3.10;;
19032;SDS011;9649;51.042;13.804;2022-07-19T22:41:23;7.10;;;2.88;;
19032;SDS011;9649;51.042;13.804;2022-07-19T22:46:25;5.95;;;3.00;;
19032;SDS011;9649;51.042;13.804;2022-07-19T22:51:28;4.68;;;2.70;;
19032;SDS011;9649;51.042;13.804;2022-07-19T22:56:32;4.90;;;2.90;;
19032;SDS011;9649;51.042;13.804;2022-07-19T23:01:35;7.43;;;2.50;;
19032;SDS011;9649;51.042;13.804;2022-07-19T23:06:47;4.88;;;2.67;;
19032;SDS011;9649;51.042;13.804;2022-07-19T23:11:51;5.95;;;2.97;;
19032;SDS011;9649;51.042;13.804;2022-07-19T23:16:54;9.95;;;3.05;;
19032;SDS011;9649;51.042;13.804;2022-07-19T23:21:57;5.90;;;2.92;;
19032;SDS011;9649;51.042;13.804;2022-07-19T23:27:12;4.63;;;2.80;;
19032;SDS011;9649;51.042;13.804;2022-07-19T23:32:15;5.60;;;2.88;;
19032;SDS011;9649;51.042;13.804;2022-07-19T23:37:17;6.25;;;2.50;;
19032;SDS011;9649;51.042;13.804;2022-07-19T23:42:21;4.30;;;2.70;;
19032;SDS011;9649;51.042;13.804;2022-07-19T23:47:24;4.85;;;2.70;;
19032;SDS011;9649;51.042;13.804;2022-07-19T23:52:27;6.65;;;2.90;;
19032;SDS011;9649;51.042;13.804;2022-07-19T23:57:31;9.02;;;3.20;;
